Time;durP1;ratioP1;P1;durP2;ratioP2;P2;SDS_P1;SDS_P2;PMS_P1;PMS_P2;Temp;Humidity;BMP_temperature;BMP_pressure;BME280_temperature;BME280_humidity;BME280_pressure;Samples;Min_cycle;Max_cycle;Signal;HPM_P1;HPM_P2
2023/07/31 00:00:26;;;;;;;37.10;13.18;;;;;;;15.70;100.00;100994.38;5022523;28;20674;-65
2023/07/31 00:02:52;;;;;;;32.25;11.68;;;;;;;15.73;100.00;100988.63;5022462;28;20079;-65
2023/07/31 00:05:17;;;;;;;33.63;11.75;;;;;;;15.76;100.00;100996.25;5021669;28;20519;-65
2023/07/31 00:07:43;;;;;;;25.88;11.30;;;;;;;15.74;100.00;100992.94;5021034;28;20041;-65
2023/07/31 00:10:08;;;;;;;31.80;11.85;;;;;;;15.75;100.00;100993.78;5022764;28;20022;-65
2023/07/31 00:12:33;;;;;;;32.38;11.38;;;;;;;15.74;100.00;100989.44;5018271;28;20376;-65
2023/07/31 00:14:59;;;;;;;28.83;10.40;;;;;;;15.74;100.00;100986.78;5022779;28;20025;-66
2023/07/31 00:17:24;;;;;;;21.88;9.68;;;;;;;15.76;100.00;100993.56;5027045;28;20041;-65
2023/07/31 00:19:50;;;;;;;27.60;9.38;;;;;;;15.76;100.00;100985.53;5026529;28;20108;-65
2023/07/31 00:22:16;;;;;;;31.70;10.10;;;;;;;15.74;100.00;100984.94;5017859;28;20041;-64
2023/07/31 00:24:41;;;;;;;30.10;9.25;;;;;;;15.75;100.00;100983.91;5025754;28;20025;-65
2023/07/31 00:27:06;;;;;;;30.85;10.10;;;;;;;15.77;100.00;100986.38;5028340;28;20021;-65
2023/07/31 00:29:32;;;;;;;27.80;9.60;;;;;;;15.77;100.00;100981.00;5030530;28;20025;-65
2023/07/31 00:31:57;;;;;;;26.30;9.07;;;;;;;15.78;100.00;100996.88;5022414;28;20021;-65
2023/07/31 00:34:22;;;;;;;27.50;9.80;;;;;;;15.76;100.00;100980.19;5031391;28;20082;-65
2023/07/31 00:36:47;;;;;;;21.85;8.98;;;;;;;15.80;100.00;100980.59;5030105;28;20363;-66
2023/07/31 00:39:13;;;;;;;23.48;9.45;;;;;;;15.81;100.00;100974.22;5025136;28;20021;-65
2023/07/31 00:41:38;;;;;;;25.50;9.13;;;;;;;15.81;100.00;100984.94;5026107;28;20108;-65
2023/07/31 00:44:04;;;;;;;29.77;9.73;;;;;;;15.82;100.00;100980.41;5037235;28;20505;-66
2023/07/31 00:46:29;;;;;;;23.60;9.63;;;;;;;15.82;100.00;100991.13;5024546;28;20025;-66
2023/07/31 00:48:54;;;;;;;28.63;9.57;;;;;;;15.81;100.00;100976.91;5028492;28;20030;-65
2023/07/31 00:51:19;;;;;;;24.92;8.98;;;;;;;15.83;100.00;100982.06;5022409;28;20021;-65
2023/07/31 00:53:45;;;;;;;24.50;10.05;;;;;;;15.82;100.00;100983.09;5026413;28;20038;-65
2023/07/31 00:56:11;;;;;;;26.60;9.38;;;;;;;15.83;100.00;100966.81;5027565;28;20028;-65
2023/07/31 00:58:36;;;;;;;24.27;9.43;;;;;;;15.84;100.00;100975.66;5017217;28;20068;-65
2023/07/31 01:01:02;;;;;;;24.15;8.95;;;;;;;15.85;100.00;100963.94;5024137;28;20030;-66
2023/07/31 01:03:27;;;;;;;29.65;9.07;;;;;;;15.83;100.00;100956.09;5021770;28;20057;-65
2023/07/31 01:06:07;;;;;;;24.35;8.60;;;;;;;15.84;100.00;100954.25;5021460;28;20029;-65
2023/07/31 01:09:03;;;;;;;23.20;8.73;;;;;;;15.87;100.00;100959.19;5021710;28;20029;-65
2023/07/31 01:11:32;;;;;;;28.52;9.00;;;;;;;15.84;100.00;100960.44;5020524;28;20029;-65
2023/07/31 01:13:58;;;;;;;21.48;8.82;;;;;;;15.83;100.00;100953.44;5022272;28;20412;-65
2023/07/31 01:16:25;;;;;;;19.25;8.40;;;;;;;15.84;100.00;100967.63;5026526;28;20708;-66
2023/07/31 01:18:51;;;;;;;24.75;8.85;;;;;;;15.83;100.00;100974.84;5026919;28;20025;-64
2023/07/31 01:21:29;;;;;;;22.50;8.13;;;;;;;15.80;100.00;100969.91;5019151;28;20029;-65
2023/07/31 01:24:15;;;;;;;21.30;8.38;;;;;;;15.81;100.00;100971.53;5023380;28;21805;-65
2023/07/31 01:26:47;;;;;;;21.35;7.93;;;;;;;15.79;100.00;100962.88;5022146;28;20025;-65
2023/07/31 01:29:38;;;;;;;20.50;7.95;;;;;;;15.80;100.00;100965.38;5025425;28;20497;-65
2023/07/31 01:32:06;;;;;;;23.27;8.05;;;;;;;15.77;100.00;100971.13;5024309;28;20033;-65
2023/07/31 01:34:32;;;;;;;26.23;7.60;;;;;;;15.76;100.00;100958.78;5025343;28;20117;-65
2023/07/31 01:36:58;;;;;;;22.25;7.82;;;;;;;15.76;100.00;100964.13;5022831;28;20479;-65
2023/07/31 01:39:23;;;;;;;23.40;7.90;;;;;;;15.74;100.00;100960.81;5025450;28;20029;-65
2023/07/31 01:41:49;;;;;;;22.70;7.55;;;;;;;15.76;100.00;100964.13;5028931;28;20399;-66
2023/07/31 01:44:14;;;;;;;25.90;7.47;;;;;;;15.75;100.00;100954.44;5028216;28;20048;-65
2023/07/31 01:46:39;;;;;;;19.85;7.20;;;;;;;15.76;100.00;100945.38;5025749;28;20032;-65
2023/07/31 01:49:06;;;;;;;23.35;7.40;;;;;;;15.76;100.00;100944.56;5025215;28;20033;-65
2023/07/31 01:51:33;;;;;;;24.42;7.50;;;;;;;15.78;100.00;100945.19;5016698;28;20021;-65
2023/07/31 01:54:00;;;;;;;20.00;7.25;;;;;;;15.77;100.00;100949.72;5023269;28;20040;-65
2023/07/31 01:56:25;;;;;;;16.55;6.95;;;;;;;15.78;100.00;100951.34;5027587;28;20505;-65
2023/07/31 01:58:50;;;;;;;21.05;7.10;;;;;;;15.79;100.00;100931.59;5024501;28;20495;-66
2023/07/31 02:01:15;;;;;;;19.38;6.82;;;;;;;15.77;100.00;100947.03;5027984;28;20021;-64
2023/07/31 02:03:42;;;;;;;24.55;8.05;;;;;;;15.78;100.00;100945.19;5026249;28;20044;-65
2023/07/31 02:06:07;;;;;;;20.65;7.15;;;;;;;15.77;100.00;100936.31;5021664;28;20022;-65
2023/07/31 02:08:32;;;;;;;19.05;6.78;;;;;;;15.75;100.00;100933.03;5021783;28;20092;-65
2023/07/31 02:10:57;;;;;;;22.80;7.13;;;;;;;15.75;100.00;100937.56;5021472;28;20104;-64
2023/07/31 02:13:23;;;;;;;20.70;7.15;;;;;;;15.76;100.00;100937.34;5023469;28;20047;-65
2023/07/31 02:15:48;;;;;;;20.75;7.15;;;;;;;15.71;100.00;100925.59;5026362;28;20033;-65
2023/07/31 02:18:13;;;;;;;22.52;7.38;;;;;;;15.71;100.00;100918.38;5023504;28;20037;-65
2023/07/31 02:20:38;;;;;;;23.15;7.32;;;;;;;15.69;100.00;100925.81;5021095;28;20035;-64
2023/07/31 02:23:04;;;;;;;21.95;7.05;;;;;;;15.70;100.00;100910.56;5027339;28;20030;-65
2023/07/31 02:25:29;;;;;;;17.35;6.72;;;;;;;15.67;100.00;100914.47;5028007;28;20052;-65
2023/07/31 02:27:54;;;;;;;23.58;7.53;;;;;;;15.66;100.00;100920.84;5019998;28;20410;-65
2023/07/31 02:30:19;;;;;;;20.92;6.57;;;;;;;15.68;100.00;100913.44;5016818;28;20025;-65
2023/07/31 02:32:45;;;;;;;20.85;7.32;;;;;;;15.67;100.00;100913.66;5018075;28;20022;-65
2023/07/31 02:35:11;;;;;;;20.90;7.38;;;;;;;15.65;100.00;100919.22;5023183;28;20018;-65
2023/07/31 02:37:36;;;;;;;22.70;6.65;;;;;;;15.65;100.00;100903.13;5024021;28;20104;-65
2023/07/31 02:40:01;;;;;;;22.52;6.97;;;;;;;15.65;100.00;100900.47;5022312;28;20104;-66
2023/07/31 02:42:27;;;;;;;21.55;7.47;;;;;;;15.65;100.00;100905.81;5013435;28;20101;-66
2023/07/31 02:44:55;;;;;;;22.27;7.88;;;;;;;15.65;100.00;100892.44;5021593;28;20021;-65
2023/07/31 02:47:21;;;;;;;19.65;7.80;;;;;;;15.64;100.00;100901.50;5025496;28;20104;-65
2023/07/31 02:49:46;;;;;;;20.38;6.72;;;;;;;15.64;100.00;100892.63;5017002;28;20048;-65
2023/07/31 02:52:12;;;;;;;23.67;7.85;;;;;;;15.63;100.00;100899.03;5022251;28;20041;-65
2023/07/31 02:54:37;;;;;;;23.15;7.28;;;;;;;15.62;100.00;100900.88;5017054;28;20507;-65
2023/07/31 02:57:02;;;;;;;19.45;6.95;;;;;;;15.63;100.00;100894.50;5022907;28;20025;-65
2023/07/31 02:59:28;;;;;;;21.35;6.97;;;;;;;15.63;100.00;100889.13;5016018;28;20132;-65
2023/07/31 03:01:53;;;;;;;19.63;7.45;;;;;;;15.64;100.00;100896.13;5023084;28;20424;-65
2023/07/31 03:04:18;;;;;;;22.80;7.72;;;;;;;15.63;100.00;100891.81;5025409;28;20112;-65
2023/07/31 03:06:43;;;;;;;25.42;7.45;;;;;;;15.64;100.00;100889.97;5024566;28;20527;-65
2023/07/31 03:09:09;;;;;;;24.92;7.22;;;;;;;15.63;100.00;100894.50;5026692;28;20021;-65
2023/07/31 03:11:34;;;;;;;18.98;7.32;;;;;;;15.64;100.00;100896.13;5025184;28;20028;-65
2023/07/31 03:13:59;;;;;;;20.17;6.90;;;;;;;15.65;100.00;100896.97;5021074;28;20545;-65
2023/07/31 03:16:24;;;;;;;18.30;7.45;;;;;;;15.64;100.00;100890.78;5018556;28;20037;-65
2023/07/31 03:18:50;;;;;;;22.08;7.22;;;;;;;15.62;100.00;100900.88;5020704;28;20025;-65
2023/07/31 03:21:15;;;;;;;22.45;6.88;;;;;;;15.62;100.00;100886.66;5015150;28;20403;-65
2023/07/31 03:23:40;;;;;;;20.38;6.70;;;;;;;15.61;100.00;100895.69;5018725;28;20056;-65
2023/07/31 03:26:07;;;;;;;21.85;7.03;;;;;;;15.60;100.00;100896.72;5022704;28;20499;-65
2023/07/31 03:28:32;;;;;;;18.55;7.05;;;;;;;15.59;100.00;100887.03;5014972;28;20013;-65
2023/07/31 03:30:58;;;;;;;21.80;7.35;;;;;;;15.58;100.00;100888.03;5014549;28;20030;-65
2023/07/31 03:33:23;;;;;;;18.77;6.93;;;;;;;15.59;100.00;100873.66;5022352;28;20509;-65
2023/07/31 03:35:48;;;;;;;23.42;7.43;;;;;;;15.58;100.00;100874.66;5009547;28;20422;-65
2023/07/31 03:38:14;;;;;;;22.60;7.43;;;;;;;15.58;100.00;100880.84;5012828;28;20395;-65
2023/07/31 03:40:39;;;;;;;19.98;7.05;;;;;;;15.56;100.00;100866.81;5014338;28;20403;-65
2023/07/31 03:43:05;;;;;;;21.70;6.88;;;;;;;15.58;100.00;100874.66;5011682;28;20080;-65
2023/07/31 03:45:30;;;;;;;16.80;6.78;;;;;;;15.58;100.00;100867.47;5017048;28;20076;-65
2023/07/31 03:47:55;;;;;;;19.15;6.93;;;;;;;15.58;100.00;100856.75;5022782;28;20080;-65
2023/07/31 03:50:21;;;;;;;15.60;6.57;;;;;;;15.56;100.00;100853.44;5013231;28;20471;-65
2023/07/31 03:52:46;;;;;;;19.50;6.90;;;;;;;15.57;100.00;100857.75;5023909;28;20022;-65
2023/07/31 03:55:11;;;;;;;21.73;6.65;;;;;;;15.56;100.00;100845.41;5021774;28;20579;-65
2023/07/31 03:57:37;;;;;;;18.17;6.90;;;;;;;15.57;100.00;100852.41;5016627;28;20026;-67
2023/07/31 04:00:03;;;;;;;16.23;6.45;;;;;;;15.60;100.00;100846.69;5027549;28;20021;-65
2023/07/31 04:02:28;;;;;;;15.02;6.18;;;;;;;15.60;100.00;100846.69;5024767;28;20026;-65
2023/07/31 04:04:54;;;;;;;18.92;6.75;;;;;;;15.64;100.00;100849.81;5024445;28;20025;-65
2023/07/31 04:07:19;;;;;;;20.60;6.90;;;;;;;15.67;100.00;100841.38;5022362;28;20029;-65
2023/07/31 04:09:44;;;;;;;20.20;6.78;;;;;;;15.66;100.00;100834.34;5019279;28;20038;-65
2023/07/31 04:12:09;;;;;;;18.17;6.70;;;;;;;15.67;100.00;100836.00;5026709;28;20386;-65
2023/07/31 04:14:35;;;;;;;25.20;7.35;;;;;;;15.67;100.00;100836.00;5027026;28;20029;-65
2023/07/31 04:17:00;;;;;;;22.75;6.50;;;;;;;15.67;100.00;100831.47;5025493;28;20029;-65
2023/07/31 04:19:25;;;;;;;22.95;7.15;;;;;;;15.68;100.00;100837.66;5026086;28;20574;-66
2023/07/31 04:21:50;;;;;;;23.80;6.78;;;;;;;15.68;100.00;100832.28;5016818;28;20036;-65
2023/07/31 04:24:22;;;;;;;19.98;6.85;;;;;;;15.68;100.00;100830.44;5018123;28;20029;-65
2023/07/31 04:26:47;;;;;;;22.00;6.65;;;;;;;15.69;100.00;100833.94;5021510;28;20087;-65
2023/07/31 04:29:12;;;;;;;17.52;6.75;;;;;;;15.71;100.00;100835.38;5018657;28;20034;-65
2023/07/31 04:31:38;;;;;;;20.27;6.35;;;;;;;15.69;100.00;100832.09;5019505;28;20021;-65
2023/07/31 04:34:03;;;;;;;18.23;6.07;;;;;;;15.68;100.00;100827.75;5017963;28;20106;-65
2023/07/31 04:36:28;;;;;;;16.73;6.18;;;;;;;15.67;100.00;100838.69;5020402;28;20606;-65
2023/07/31 04:38:53;;;;;;;16.40;5.80;;;;;;;15.65;100.00;100825.50;5025539;28;20017;-65
2023/07/31 04:41:19;;;;;;;17.88;6.40;;;;;;;15.63;100.00;100829.41;5018799;28;20065;-65
2023/07/31 04:43:44;;;;;;;20.80;6.40;;;;;;;15.56;100.00;100821.31;5020370;28;20030;-66
2023/07/31 04:46:09;;;;;;;19.35;7.00;;;;;;;15.52;100.00;100822.75;5017976;28;20026;-65
2023/07/31 04:48:34;;;;;;;18.20;6.60;;;;;;;15.48;100.00;100816.16;5014957;28;20013;-65
2023/07/31 04:51:00;;;;;;;18.92;6.70;;;;;;;15.46;100.00;100819.03;5023454;28;20157;-65
2023/07/31 04:53:25;;;;;;;16.73;6.68;;;;;;;15.47;100.00;100817.19;5015412;28;20026;-65
2023/07/31 04:55:50;;;;;;;20.02;6.43;;;;;;;15.44;100.00;100807.72;5015177;28;20030;-65
2023/07/31 04:58:15;;;;;;;18.48;7.38;;;;;;;15.44;100.00;100809.56;5026160;28;20033;-65
2023/07/31 05:00:41;;;;;;;20.95;6.90;;;;;;;15.43;100.00;100806.06;5024987;28;20029;-65
2023/07/31 05:03:06;;;;;;;26.13;7.30;;;;;;;15.44;100.00;100806.91;5024249;28;20025;-66
2023/07/31 05:05:32;;;;;;;22.60;6.82;;;;;;;15.44;100.00;100802.38;5021268;28;20013;-65
2023/07/31 05:07:57;;;;;;;21.38;7.20;;;;;;;15.44;100.00;100793.50;5022995;28;20033;-65
2023/07/31 05:10:22;;;;;;;21.20;7.35;;;;;;;15.44;100.00;100790.84;5023995;28;20021;-66
2023/07/31 05:12:48;;;;;;;22.73;7.70;;;;;;;15.44;100.00;100799.69;5024582;28;20028;-66
2023/07/31 05:15:13;;;;;;;21.90;7.93;;;;;;;15.43;100.00;100789.19;5022714;28;20029;-65
2023/07/31 05:17:38;;;;;;;26.85;7.78;;;;;;;15.45;100.00;100787.13;5017727;28;20038;-66
2023/07/31 05:20:04;;;;;;;21.48;7.63;;;;;;;15.45;100.00;100776.44;5021745;28;20048;-66
2023/07/31 05:22:29;;;;;;;21.10;6.95;;;;;;;15.46;100.00;100780.75;5019515;28;20488;-66
2023/07/31 05:24:55;;;;;;;21.60;7.30;;;;;;;15.46;100.00;100783.44;5024049;28;20479;-66
2023/07/31 05:27:20;;;;;;;22.10;7.55;;;;;;;15.48;100.00;100782.19;5021485;28;20025;-66
2023/07/31 05:29:45;;;;;;;21.30;7.15;;;;;;;15.49;100.00;100778.50;5018285;28;20033;-66
2023/07/31 05:32:11;;;;;;;20.98;7.28;;;;;;;15.51;100.00;100770.25;5021846;28;20392;-66
2023/07/31 05:34:36;;;;;;;17.08;6.93;;;;;;;15.54;100.00;100777.88;5024917;28;20495;-66
2023/07/31 05:37:02;;;;;;;20.77;7.57;;;;;;;15.55;100.00;100771.50;5021983;28;20387;-66
2023/07/31 05:39:27;;;;;;;18.35;7.30;;;;;;;15.53;100.00;100770.88;5019404;28;20071;-67
2023/07/31 05:41:52;;;;;;;15.82;6.72;;;;;;;15.53;100.00;100775.41;5015531;28;20053;-66
2023/07/31 05:44:17;;;;;;;17.40;6.70;;;;;;;15.50;100.00;100773.97;5023554;28;20018;-65
2023/07/31 05:46:43;;;;;;;15.23;7.20;;;;;;;15.45;100.00;100769.22;5025798;28;20029;-66
2023/07/31 05:49:08;;;;;;;15.07;6.93;;;;;;;15.41;100.00;100764.50;5021424;28;20045;-66
2023/07/31 05:51:33;;;;;;;19.05;7.05;;;;;;;15.39;100.00;100753.16;5025172;28;20022;-66
2023/07/31 05:53:59;;;;;;;16.73;6.95;;;;;;;15.36;100.00;100756.25;5026787;28;20033;-66
2023/07/31 05:56:24;;;;;;;16.92;7.13;;;;;;;15.36;100.00;100753.56;5019037;28;20087;-66
2023/07/31 05:58:50;;;;;;;14.38;6.70;;;;;;;15.32;100.00;100747.78;5014572;28;20036;-66
2023/07/31 06:01:16;;;;;;;16.05;7.53;;;;;;;15.31;100.00;100754.16;5024396;28;20022;-65
2023/07/31 06:03:42;;;;;;;16.73;7.10;;;;;;;15.31;100.00;100745.31;5020275;28;20026;-65
2023/07/31 06:06:07;;;;;;;14.50;7.05;;;;;;;15.30;100.00;100752.50;5022324;28;20024;-65
2023/07/31 06:08:33;;;;;;;14.63;6.75;;;;;;;15.31;100.00;100746.13;5017849;28;20181;-66
2023/07/31 06:10:58;;;;;;;12.65;6.63;;;;;;;15.32;100.00;100752.31;5022617;28;20402;-64
2023/07/31 06:13:23;;;;;;;15.18;6.22;;;;;;;15.33;100.00;100751.31;5028267;28;20036;-65
2023/07/31 06:15:48;;;;;;;14.65;6.68;;;;;;;15.32;100.00;100745.09;5024372;28;20022;-65
2023/07/31 06:18:14;;;;;;;15.07;7.03;;;;;;;15.34;100.00;100739.59;5025309;28;20033;-65
2023/07/31 06:20:40;;;;;;;10.95;5.57;;;;;;;15.33;100.00;100743.28;5028325;28;20030;-65
2023/07/31 06:23:06;;;;;;;12.10;5.97;;;;;;;15.36;100.00;100741.03;5025431;28;20029;-65
2023/07/31 06:25:31;;;;;;;11.98;5.60;;;;;;;15.36;100.00;100740.19;5023050;28;20036;-65
2023/07/31 06:27:56;;;;;;;10.20;5.28;;;;;;;15.37;100.00;100734.66;5022333;28;20032;-65
2023/07/31 06:30:21;;;;;;;9.48;5.05;;;;;;;15.36;100.00;100735.66;5028732;28;20045;-65
2023/07/31 06:32:47;;;;;;;8.07;5.03;;;;;;;15.36;100.00;100733.00;5020766;28;20017;-65
2023/07/31 06:35:12;;;;;;;8.32;4.57;;;;;;;15.32;100.00;100730.91;5015405;28;20029;-65
2023/07/31 06:37:40;;;;;;;7.13;4.50;;;;;;;15.38;100.00;100740.81;5025447;28;20467;-65
2023/07/31 06:40:07;;;;;;;7.20;4.20;;;;;;;15.37;100.00;100736.50;5030492;28;20049;-65
2023/07/31 06:42:32;;;;;;;6.25;3.90;;;;;;;15.38;100.00;100730.13;5024823;28;20481;-65
2023/07/31 06:44:58;;;;;;;6.03;3.83;;;;;;;15.40;100.00;100715.50;5028246;28;20048;-65
2023/07/31 06:47:23;;;;;;;6.85;4.10;;;;;;;15.42;100.00;100713.44;5025281;28;20052;-65
2023/07/31 06:49:48;;;;;;;5.40;3.72;;;;;;;15.42;100.00;100702.72;5027348;28;20029;-66
2023/07/31 06:52:13;;;;;;;6.75;3.72;;;;;;;15.45;100.00;100705.00;5027114;28;20029;-65
2023/07/31 06:54:39;;;;;;;6.10;4.13;;;;;;;15.43;100.00;100704.38;5020510;28;20616;-65
2023/07/31 06:57:04;;;;;;;5.80;3.85;;;;;;;15.44;100.00;100707.88;5024279;28;20028;-65
2023/07/31 06:59:29;;;;;;;5.72;3.75;;;;;;;15.45;100.00;100704.16;5011481;28;20032;-66
2023/07/31 07:01:55;;;;;;;4.82;3.83;;;;;;;15.45;100.00;100694.28;5026679;28;20084;-65
2023/07/31 07:04:20;;;;;;;7.45;4.32;;;;;;;15.46;100.00;100703.13;5022492;28;20025;-65
2023/07/31 07:06:45;;;;;;;5.53;4.47;;;;;;;15.46;100.00;100697.78;5025977;28;20067;-65
2023/07/31 07:09:10;;;;;;;7.10;4.72;;;;;;;15.45;100.00;100702.31;5020526;28;20017;-65
2023/07/31 07:11:37;;;;;;;6.60;4.50;;;;;;;15.49;100.00;100697.38;5024456;28;20014;-65
2023/07/31 07:14:02;;;;;;;6.65;4.93;;;;;;;15.48;100.00;100693.06;5027076;28;20029;-64
2023/07/31 07:16:28;;;;;;;6.45;4.63;;;;;;;15.49;100.00;100695.53;5023610;28;20026;-64
2023/07/31 07:18:53;;;;;;;7.32;4.68;;;;;;;15.54;100.00;100699.44;5024196;28;20109;-65
2023/07/31 07:21:18;;;;;;;6.32;4.80;;;;;;;15.55;100.00;100699.22;5021934;28;20647;-65
2023/07/31 07:23:44;;;;;;;7.30;5.38;;;;;;;15.58;100.00;100685.44;5021334;28;20025;-65
2023/07/31 07:26:09;;;;;;;8.77;4.97;;;;;;;15.57;100.00;100685.63;5014633;28;20029;-65
2023/07/31 07:28:34;;;;;;;6.63;5.57;;;;;;;15.56;100.00;100684.81;5017858;28;20484;-65
2023/07/31 07:30:59;;;;;;;8.60;5.43;;;;;;;15.55;100.00;100688.50;5022018;28;20021;-65
2023/07/31 07:33:25;;;;;;;8.43;5.20;;;;;;;15.56;100.00;100687.47;5027763;28;20028;-65
2023/07/31 07:35:50;;;;;;;7.47;5.28;;;;;;;15.55;100.00;100685.00;5016933;28;20036;-68
2023/07/31 07:38:15;;;;;;;10.40;6.20;;;;;;;15.57;100.00;100694.47;5026106;28;20067;-65
2023/07/31 07:40:41;;;;;;;7.53;5.50;;;;;;;15.55;100.00;100693.88;5018674;28;20026;-65
2023/07/31 07:43:07;;;;;;;8.85;5.40;;;;;;;15.54;100.00;100689.53;5024264;28;20017;-65
2023/07/31 07:45:32;;;;;;;8.50;5.68;;;;;;;15.55;100.00;100685.84;5023542;28;20025;-65
2023/07/31 07:47:58;;;;;;;7.88;5.68;;;;;;;15.60;100.00;100691.41;5015181;28;20026;-65
2023/07/31 07:50:24;;;;;;;8.98;6.10;;;;;;;15.64;100.00;100692.69;5020626;28;20029;-65
2023/07/31 07:52:49;;;;;;;9.52;6.22;;;;;;;15.67;100.00;100694.13;5021502;28;20557;-65
2023/07/31 07:55:14;;;;;;;8.48;6.25;;;;;;;15.65;100.00;100691.66;5027543;28;20029;-65
2023/07/31 07:57:40;;;;;;;9.38;6.13;;;;;;;15.68;100.00;100701.13;5024540;28;20017;-65
2023/07/31 08:00:06;;;;;;;10.85;6.95;;;;;;;15.72;100.00;100691.63;5018673;28;20104;-65
2023/07/31 08:02:31;;;;;;;11.15;7.30;;;;;;;15.73;100.00;100688.75;5024381;28;20024;-65
2023/07/31 08:04:56;;;;;;;14.70;7.15;;;;;;;15.75;100.00;100686.69;5026564;28;20096;-64
2023/07/31 08:07:21;;;;;;;13.35;6.68;;;;;;;15.78;100.00;100683.59;5023211;28;20018;-64
2023/07/31 08:09:47;;;;;;;11.23;7.00;;;;;;;15.78;100.00;100680.91;5015805;28;20018;-65
2023/07/31 08:12:12;;;;;;;9.07;6.55;;;;;;;15.77;100.00;100681.94;5021801;28;20028;-65
2023/07/31 08:14:37;;;;;;;9.63;7.18;;;;;;;15.80;100.00;100678.84;5025449;28;20025;-65
2023/07/31 08:17:03;;;;;;;10.38;6.45;;;;;;;15.80;100.00;100686.06;5020105;28;20105;-65
2023/07/31 08:19:28;;;;;;;10.35;7.30;;;;;;;15.82;100.00;100678.63;5024327;28;20025;-65
2023/07/31 08:21:53;;;;;;;10.95;7.07;;;;;;;15.78;100.00;100678.22;5026478;28;20033;-65
2023/07/31 08:24:19;;;;;;;9.15;6.53;;;;;;;15.78;100.00;100682.75;5021226;28;20029;-65
2023/07/31 08:26:44;;;;;;;9.48;7.18;;;;;;;15.78;100.00;100686.25;5026775;28;20026;-65
2023/07/31 08:29:09;;;;;;;11.02;6.90;;;;;;;15.74;100.00;100686.88;5014814;28;20090;-65
2023/07/31 08:31:34;;;;;;;12.02;7.43;;;;;;;15.70;100.00;100683.81;5019274;28;20029;-65
2023/07/31 08:34:00;;;;;;;12.93;7.22;;;;;;;15.71;100.00;100674.75;5017685;28;20522;-65
2023/07/31 08:36:25;;;;;;;10.68;7.28;;;;;;;15.69;100.00;100674.13;5020029;28;20025;-65
2023/07/31 08:38:51;;;;;;;11.63;7.50;;;;;;;15.68;100.00;100677.84;5028921;28;20032;-65
2023/07/31 08:41:19;;;;;;;11.27;7.35;;;;;;;15.67;100.00;100668.16;5024274;28;20279;-65
2023/07/31 08:43:46;;;;;;;10.38;7.65;;;;;;;15.67;100.00;100686.09;5024263;28;20033;-65
2023/07/31 08:46:12;;;;;;;14.13;8.00;;;;;;;15.67;100.00;100680.72;5023443;28;20055;-65
2023/07/31 08:48:40;;;;;;;12.57;8.32;;;;;;;15.64;100.00;100681.16;5027208;28;20511;-65
2023/07/31 08:51:07;;;;;;;14.00;8.38;;;;;;;15.65;100.00;100683.63;5030183;28;20033;-65
2023/07/31 08:53:32;;;;;;;11.27;8.55;;;;;;;15.64;100.00;100681.97;5023601;28;20029;-65
2023/07/31 08:55:58;;;;;;;12.32;8.70;;;;;;;15.62;100.00;100681.34;5027516;28;20025;-64
2023/07/31 08:58:25;;;;;;;13.48;9.27;;;;;;;15.63;100.00;100682.19;5023184;28;20026;-65
2023/07/31 09:00:50;;;;;;;14.25;9.93;;;;;;;15.63;100.00;100668.78;5026172;28;20017;-65
2023/07/31 09:03:18;;;;;;;14.48;10.05;;;;;;;15.62;100.00;100667.97;5021949;28;20560;-65
2023/07/31 09:05:45;;;;;;;16.83;10.57;;;;;;;15.62;100.00;100672.50;5030103;28;20025;-65
2023/07/31 09:08:13;;;;;;;16.58;10.20;;;;;;;15.64;100.00;100684.66;5020785;28;20021;-65
2023/07/31 09:10:42;;;;;;;21.55;10.73;;;;;;;15.64;100.00;100671.25;5024740;28;20387;-65
2023/07/31 09:13:08;;;;;;;;;;;;;;;15.65;100.00;100677.44;5030275;28;20017;-65
2023/07/31 09:15:34;;;;;;;14.95;10.73;;;;;;;15.68;100.00;100671.66;5026281;28;20374;-65
2023/07/31 09:18:01;;;;;;;17.85;11.00;;;;;;;15.74;100.00;100674.31;5021559;28;20030;-65
2023/07/31 09:20:26;;;;;;;14.93;10.90;;;;;;;15.83;100.00;100677.59;5022978;28;20017;-65
2023/07/31 09:22:52;;;;;;;19.15;11.43;;;;;;;15.88;100.00;100660.91;5026619;28;20022;-65
2023/07/31 09:25:22;;;;;;;17.80;10.55;;;;;;;15.94;100.00;100660.91;5029392;28;20075;-64
2023/07/31 09:27:54;;;;;;;17.95;10.43;;;;;;;16.05;100.00;100662.09;5017406;28;20418;-65
2023/07/31 09:30:21;;;;;;;13.80;10.20;;;;;;;16.15;100.00;100665.16;5023764;28;20100;-65
2023/07/31 09:32:48;;;;;;;16.08;9.88;;;;;;;16.19;100.00;100654.84;5024488;28;20033;-65
2023/07/31 09:35:21;;;;;;;16.88;9.90;;;;;;;16.23;100.00;100646.19;5027358;28;20021;-65
2023/07/31 09:37:54;;;;;;;11.45;8.52;;;;;;;16.26;100.00;100653.78;5030029;28;20013;-65
2023/07/31 09:40:30;;;;;;;15.05;8.40;;;;;;;16.33;100.00;100651.09;5028823;28;20025;-65
2023/07/31 09:43:10;;;;;;;17.25;8.73;;;;;;;16.40;100.00;100646.50;5027961;28;20041;-64
2023/07/31 09:45:37;;;;;;;14.30;8.18;;;;;;;16.43;100.00;100656.78;5025483;28;20517;-65
2023/07/31 09:48:03;;;;;;;12.20;7.57;;;;;;;16.49;100.00;100641.75;5026101;28;20042;-64
2023/07/31 09:50:29;;;;;;;12.18;7.72;;;;;;;16.57;100.00;100642.31;5022308;28;20399;-65
2023/07/31 09:52:54;;;;;;;14.13;8.27;;;;;;;16.68;100.00;100644.31;5023671;28;20017;-65
2023/07/31 09:55:20;;;;;;;13.80;7.65;;;;;;;16.72;100.00;100645.53;5024039;28;20024;-65
2023/07/31 09:57:47;;;;;;;12.90;7.47;;;;;;;16.75;100.00;100652.31;5028276;28;20013;-65
2023/07/31 10:00:15;;;;;;;11.45;6.72;;;;;;;16.78;100.00;100643.06;5028466;28;20105;-65
2023/07/31 10:02:41;;;;;;;12.57;7.28;;;;;;;16.82;100.00;100639.72;5024401;28;20053;-65
2023/07/31 10:05:07;;;;;;;11.50;6.72;;;;;;;16.84;100.00;100643.00;5021489;28;20147;-65
2023/07/31 10:07:39;;;;;;;11.18;7.03;;;;;;;16.87;100.00;100637.19;5025205;28;20028;-65
2023/07/31 10:10:06;;;;;;;12.90;6.80;;;;;;;16.88;100.00;100632.66;5018119;28;20036;-65
2023/07/31 10:12:34;;;;;;;10.25;6.30;;;;;;;16.93;100.00;100632.81;5028220;28;20537;-65
2023/07/31 10:15:00;;;;;;;11.40;6.97;;;;;;;16.96;100.00;100640.44;5024690;28;20030;-65
2023/07/31 10:17:26;;;;;;;13.07;6.70;;;;;;;16.98;100.00;100639.19;5026896;28;20041;-64
2023/07/31 10:19:53;;;;;;;9.85;6.10;;;;;;;17.04;100.00;100641.00;5026822;28;20021;-65
2023/07/31 10:22:20;;;;;;;9.90;6.00;;;;;;;17.12;100.00;100636.41;5026474;28;20108;-65
2023/07/31 10:24:46;;;;;;;8.23;6.00;;;;;;;17.18;100.00;100631.00;5015722;28;20156;-65
2023/07/31 10:27:12;;;;;;;8.43;5.80;;;;;;;17.26;100.00;100632.56;5028936;28;20053;-65
2023/07/31 10:29:39;;;;;;;7.85;5.28;;;;;;;17.29;100.00;100632.94;5025223;28;20034;-64
2023/07/31 10:32:10;;;;;;;8.88;5.45;;;;;;;17.33;100.00;100631.47;5022075;28;20029;-65
2023/07/31 10:34:35;;;;;;;8.40;5.18;;;;;;;17.38;100.00;100636.19;5021139;28;20026;-65
2023/07/31 10:37:28;;;;;;;8.68;5.70;;;;;;;17.41;100.00;100630.38;5021414;28;20549;-65
2023/07/31 10:39:58;;;;;;;7.90;5.65;;;;;;;17.45;100.00;100631.59;5023695;28;20026;-65
2023/07/31 10:42:29;;;;;;;9.25;5.72;;;;;;;17.47;100.00;100637.56;5026851;28;20025;-65
2023/07/31 10:44:59;;;;;;;9.90;4.93;;;;;;;17.49;100.00;100643.53;5021013;28;20030;-66
2023/07/31 10:47:24;;;;;;;6.82;4.45;;;;;;;17.52;100.00;100642.25;5014035;28;20101;-65
2023/07/31 10:49:49;;;;;;;11.52;4.80;;;;;;;17.53;100.00;100628.59;5024787;28;20140;-65
2023/07/31 10:52:22;;;;;;;8.57;4.75;;;;;;;17.55;100.00;100644.50;5024613;28;20071;-65
2023/07/31 10:54:48;;;;;;;7.90;4.43;;;;;;;17.57;100.00;100637.03;5027902;28;20033;-65
2023/07/31 10:57:21;;;;;;;7.43;4.10;;;;;;;17.60;100.00;100628.53;5028246;28;20364;-65
2023/07/31 10:59:47;;;;;;;7.65;4.25;;;;;;;17.62;100.00;100629.94;5026420;28;20100;-65
2023/07/31 11:02:27;;;;;;;6.25;4.07;;;;;;;17.68;100.00;100630.16;5028281;28;20026;-65
2023/07/31 11:05:11;;;;;;;7.65;4.30;;;;;;;17.74;100.00;100629.28;5023905;28;20153;-65